• Join FlightAware (Why Join?)
  • Login
  • US Flag 
09:08AM EDT


 

Airport Tracker/Info


-or-


 

Live Flight TrackerFlight Track Log ✈ SWA3206 ✈ 01-May-2013 ✈ KPHL - KMDW

Flight Track Log - Related Links

Times and Time Zones

All times are in EDT time to prevent confusion due to time zone crossing. See the SWA3206 flight status page for this flight to view local times or setup timezone preferences in your user account.

Time Position Orientation Groundspeed Altitude Reporting Facility
EDT Latitude Longitude Course Direction KTS MPH feet Rate Location/Type
11:13AM 39.8667 -75.2333 57° Northeast 151 174 1,000  Level Philadelphia TRACON
11:13AM 39.8833 -75.2000 57° Northeast 187 215 2,500 2,940 Climbing Philadelphia TRACON
11:14AM 39.9500 -75.1833 11° North 228 262 6,300 3,600 Climbing Philadelphia TRACON
11:15AM 40.0000 -75.2167 333° Northwest 261 300 9,700 1,860 Climbing Philadelphia TRACON
11:16AM 40.0667 -75.3167 311° West 354 407 10,100 960 Climbing Philadelphia TRACON
11:18AM 40.1361 -75.4328 308° West 380 437 11,900 1,860 Climbing New York Center
11:19AM 40.1947 -75.5264 309° West 375 432 14,400 2,580 Climbing New York Center
11:20AM 40.2678 -75.6292 313° West 380 437 17,100 2,580 Climbing New York Center
11:21AM 40.3522 -75.7522 312° West 386 444 19,600 2,520 Climbing New York Center
11:22AM 40.4264 -75.8694 310° West 402 463 22,200 2,340 Climbing New York Center
11:23AM 40.4583 -76.0000 288° West 409 471 24,300 1,980 Climbing New York Center
11:24AM 40.4822 -76.1628 281° West 428 493 26,300 1,800 Climbing New York Center
11:25AM 40.5081 -76.3258 282° West 447 514 28,000 1,620 Climbing New York Center
11:26AM 40.5333 -76.4919 281° West 459 528 29,600 1,740 Climbing New York Center
11:27AM 40.5650 -76.6558 284° West 464 534 31,500 1,860 Climbing New York Center
11:28AM 40.6072 -76.8097 290° West 459 528 33,300 1,920 Climbing New York Center
11:29AM 40.6472 -76.9611 289° West 453 521 35,400 1,320 Climbing New York Center
11:30AM 40.6872 -77.1153 289° West 453 521 36,000 300 Climbing New York Center
11:31AM 40.7269 -77.2667 289° West 448 516 36,000  Level New York Center
11:32AM 40.7664 -77.4158 289° West 448 516 36,000  Level New York Center
11:33AM 40.8058 -77.5678 289° West 443 510 36,000  Level New York Center
11:35AM 40.8992 -77.9156 290° West 442 509 36,000  Level Cleveland Center
11:36AM 40.9275 -78.0711 284° West 437 503 36,000  Level Cleveland Center
11:37AM 40.9456 -78.2300 279° West 437 503 36,000  Level Cleveland Center
11:38AM 40.9656 -78.3914 279° West 442 509 36,000  Level Cleveland Center
11:39AM 40.9872 -78.5503 280° West 447 514 36,000  Level Cleveland Center
11:40AM 41.0047 -78.7150 278° West 447 514 36,000  Level Cleveland Center
11:41AM 41.0239 -78.8767 279° West 447 514 36,000  Level Cleveland Center
11:42AM 41.0428 -79.0414 279° West 447 514 36,000  Level Cleveland Center
11:43AM 41.0617 -79.2036 279° West 447 514 36,000  Level Cleveland Center
11:44AM 41.0800 -79.3683 278° West 447 514 36,000  Level Cleveland Center
11:45AM 41.0983 -79.5306 279° West 447 514 36,000  Level Cleveland Center
11:46AM 41.1186 -79.6928 279° West 447 514 36,000  Level Cleveland Center
11:47AM 41.1342 -79.8581 277° West 447 514 36,000  Level Cleveland Center
11:48AM 41.1519 -80.0206 278° West 447 514 36,000  Level Cleveland Center
11:49AM 41.1714 -80.1831 279° West 447 514 36,000  Level Cleveland Center
11:50AM 41.1883 -80.3514 278° West 447 514 36,000  Level Cleveland Center
11:51AM 41.2011 -80.5142 276° West 447 514 36,000  Level Cleveland Center
11:52AM 41.2178 -80.6797 278° West 447 514 36,000  Level Cleveland Center
11:53AM 41.2342 -80.8428 278° West 447 514 36,000  Level Cleveland Center
11:54AM 41.2525 -81.0194 278° West 447 514 36,000  Level Cleveland Center
11:55AM 41.2683 -81.1825 277° West 442 509 36,000  Level Cleveland Center
11:56AM 41.2819 -81.3431 276° West 444 511 36,000  Level Cleveland Center
11:57AM 41.3017 -81.5064 279° West 449 517 36,000  Level Cleveland Center
11:58AM 41.3147 -81.6722 276° West 449 517 36,000  Level Cleveland Center
11:59AM 41.3297 -81.8331 277° West 449 517 36,000  Level Cleveland Center
12:00PM 41.3447 -81.9936 277° West 444 511 36,000  Level Cleveland Center
12:01PM 41.3550 -82.1489 275° West 455 524 36,000  Level Cleveland Center
12:02PM 41.3672 -82.3289 275° West 455 524 36,000  Level Cleveland Center
12:03PM 41.3769 -82.4953 275° West 455 524 36,000  Level Cleveland Center
12:04PM 41.3864 -82.6644 274° West 460 529 36,000  Level Cleveland Center
12:05PM 41.3939 -82.8306 273° West 460 529 36,000  Level Cleveland Center
12:06PM 41.4050 -83.0028 275° West 460 529 36,000  Level Cleveland Center
12:07PM 41.4117 -83.1719 273° West 460 529 36,000  Level Cleveland Center
12:08PM 41.4200 -83.3411 274° West 460 529 36,000  Level Cleveland Center
12:09PM 41.4283 -83.5106 274° West 460 529 36,000 -360 Level Cleveland Center
12:10PM 41.4367 -83.6772 274° West 460 529 35,300 -900 Descending Cleveland Center
12:11PM 41.4442 -83.8492 273° West 460 529 34,300 -960 Descending Cleveland Center
12:12PM 41.4519 -84.0158 274° West 465 535 33,400 -960 Descending Cleveland Center
12:13PM 41.4592 -84.1881 273° West 459 528 32,400 -960 Descending Cleveland Center
12:15PM 41.4783 -84.5781 274° West 465 535 30,200 -720 Descending Chicago Center
12:16PM 41.4861 -84.7872 273° West 470 541 30,000 -120 Descending Chicago Center
12:17PM 41.4925 -84.9608 273° West 470 541 30,000 -600 Level Chicago Center
12:18PM 41.4975 -85.1292 272° West 457 526 28,800 -1,800 Descending Chicago Center
12:19PM 41.5025 -85.2944 272° West 444 511 26,300 -2,040 Descending Chicago Center
12:21PM 41.5069 -85.4578 272° West 429 494 24,600 -1,860 Descending Chicago Center
12:22PM 41.5133 -85.6122 273° West 409 471 22,500 -2,100 Descending Chicago Center
12:23PM 41.5172 -85.7650 272° West 407 468 20,300 -2,100 Descending Chicago Center
12:24PM 41.5208 -85.9081 272° West 388 447 18,300 -1,920 Descending Chicago Center
12:25PM 41.5242 -86.0442 272° West 370 426 16,400 -2,160 Descending Chicago Center
12:26PM 41.5239 -86.2025 270° West 357 411 13,900 -2,220 Descending Chicago Center
12:27PM 41.5219 -86.3314 269° West 348 400 11,900 -1,500 Descending Chicago Center
12:28PM 41.5228 -86.4550 271° West 336 387 10,900 -960 Descending Chicago Center
12:29PM 41.5211 -86.5700 269° West 314 361 10,000 -480 Descending Chicago Center
12:30PM 41.5206 -86.6764 270° West 292 336 10,000 -780 Level Chicago Center
12:31PM 41.5186 -86.7883 269° West 288 331 8,400 -1,500 Descending Chicago Center
12:32PM 41.5197 -86.8944 271° West 288 331 6,900 -1,200 Descending Chicago Center
12:33PM 41.5167 -87.0178 268° West 282 325 6,000 -480 Descending Chicago Center
12:34PM 41.5167 -87.1333 270° West 278 320 6,000 -420 Level Chicago TRACON
12:35PM 41.5500 -87.2333 294° West 284 327 5,100 -960 Descending Chicago TRACON
12:36PM 41.5833 -87.3167 298° West 280 322 4,100 -600 Descending Chicago TRACON
12:37PM 41.6167 -87.4000 298° West 251 289 4,000 -240 Descending Chicago TRACON
12:38PM 41.6622 -87.4769 308° West 256 295 3,700 -480 Descending Chicago Center
12:39PM 41.6947 -87.5417 304° West 234 269 3,100 -600 Descending Chicago Center
12:40PM 41.7322 -87.5922 315° West 210 242 2,500 -300 Descending Chicago Center
12:41PM 41.7683 -87.6369 317° Northwest 193 222 2,600 -420 Climbing Chicago Center
12:42PM 41.8000 -87.6833 312° West 170 196 1,800 -900 Descending Chicago TRACON
12:43PM 41.8000 -87.7333 270° West 134 154 900 -900 Descending Chicago TRACON
12:45PM 41.7833 -87.7500 334° Northwest  Level FlightAware Approximate